Time;durP1;ratioP1;P1;durP2;ratioP2;P2;SDS_P1;SDS_P2;PMS_P1;PMS_P2;Temp;Humidity;BMP_temperature;BMP_pressure;BME280_temperature;BME280_humidity;BME280_pressure;Samples;Min_cycle;Max_cycle;Signal;HPM_P1;HPM_P2
2022/03/03 00:01:26;;;;;;;70.90;66.10;;;2.60;99.90;;;;;;4357670;33;20160;-61
2022/03/03 00:03:53;;;;;;;70.33;65.70;;;2.60;99.90;;;;;;4360450;32;20158;-61
2022/03/03 00:06:19;;;;;;;68.67;63.73;;;2.60;99.90;;;;;;4359936;33;20624;-60
2022/03/03 00:08:46;;;;;;;73.87;68.90;;;2.60;99.90;;;;;;4361451;32;20649;-61
2022/03/03 00:11:13;;;;;;;77.63;72.30;;;2.60;99.90;;;;;;4360403;32;20513;-61
2022/03/03 00:13:40;;;;;;;74.83;70.07;;;2.60;99.90;;;;;;4360109;33;20198;-60
2022/03/03 00:16:08;;;;;;;75.07;70.17;;;2.50;99.90;;;;;;4359228;33;20164;-61
2022/03/03 00:18:35;;;;;;;75.30;70.30;;;2.50;99.90;;;;;;4359928;32;20141;-60
2022/03/03 00:21:02;;;;;;;69.37;65.07;;;2.50;99.90;;;;;;4359803;33;20172;-60
2022/03/03 00:23:29;;;;;;;68.93;64.33;;;2.50;99.90;;;;;;4360116;33;20170;-60
2022/03/03 00:25:55;;;;;;;79.87;74.43;;;2.50;99.90;;;;;;4360673;33;20580;-61
2022/03/03 00:28:22;;;;;;;78.57;73.27;;;2.50;99.90;;;;;;4359695;33;20669;-61
2022/03/03 00:30:49;;;;;;;79.90;74.73;;;2.50;99.90;;;;;;4358541;33;20224;-60
2022/03/03 00:33:17;;;;;;;83.53;78.33;;;2.50;99.90;;;;;;4354056;33;20168;-60
2022/03/03 00:35:44;;;;;;;72.07;67.23;;;2.50;99.90;;;;;;4349427;33;20577;-59
2022/03/03 00:38:11;;;;;;;78.27;73.20;;;2.50;99.90;;;;;;4359610;33;20255;-60
2022/03/03 00:40:38;;;;;;;71.47;66.47;;;2.50;99.90;;;;;;4359985;33;20159;-60
2022/03/03 00:43:06;;;;;;;73.23;68.33;;;2.50;99.90;;;;;;4359293;33;20225;-61
2022/03/03 00:45:33;;;;;;;71.47;66.67;;;2.40;99.90;;;;;;4359855;33;20160;-61
2022/03/03 00:48:00;;;;;;;71.00;66.27;;;2.40;99.90;;;;;;4360147;33;20499;-62
2022/03/03 00:50:29;;;;;;;73.20;68.10;;;2.40;99.90;;;;;;4359160;33;20246;-61
2022/03/03 00:52:56;;;;;;;72.33;67.47;;;2.40;99.90;;;;;;4358537;33;20176;-60
2022/03/03 00:55:23;;;;;;;75.97;71.27;;;2.40;99.90;;;;;;4361260;33;20181;-59
2022/03/03 00:57:49;;;;;;;77.80;72.70;;;2.40;99.90;;;;;;4359729;33;20172;-61
2022/03/03 01:00:18;;;;;;;76.07;71.00;;;2.40;99.90;;;;;;4354442;33;20136;-61
2022/03/03 01:02:45;;;;;;;71.83;66.90;;;2.40;99.90;;;;;;4349189;33;20708;-59
2022/03/03 01:05:12;;;;;;;70.87;66.20;;;2.30;99.90;;;;;;4359382;33;20240;-61
2022/03/03 01:07:40;;;;;;;75.57;70.67;;;2.50;99.90;;;;;;4358653;33;20460;-61
2022/03/03 01:10:10;;;;;;;73.07;67.87;;;2.30;99.90;;;;;;4359202;33;20221;-61
2022/03/03 01:12:37;;;;;;;72.50;67.63;;;2.30;99.90;;;;;;4360632;33;20168;-61
2022/03/03 01:15:04;;;;;;;70.17;65.27;;;2.30;99.90;;;;;;4359658;33;20169;-61
2022/03/03 01:17:31;;;;;;;74.73;69.80;;;2.20;99.90;;;;;;4358974;33;20217;-61
2022/03/03 01:19:58;;;;;;;72.90;68.43;;;2.20;99.90;;;;;;4359419;33;20179;-61
2022/03/03 01:22:25;;;;;;;77.30;72.00;;;2.20;99.90;;;;;;4287809;33;1977536;-62
2022/03/03 01:24:53;;;;;;;74.20;69.53;;;2.20;99.90;;;;;;4358685;33;20503;-59
2022/03/03 01:27:20;;;;;;;74.17;69.13;;;2.10;99.90;;;;;;4359037;33;20158;-58
2022/03/03 01:29:46;;;;;;;73.87;68.90;;;2.10;99.90;;;;;;4359749;32;20189;-60
2022/03/03 01:32:13;;;;;;;73.40;68.03;;;2.00;99.90;;;;;;4360806;33;20161;-59
2022/03/03 01:34:43;;;;;;;78.13;72.83;;;2.00;99.90;;;;;;4353131;33;20209;-61
2022/03/03 01:37:10;;;;;;;76.87;71.73;;;2.10;99.90;;;;;;4342490;33;20213;-61
2022/03/03 01:39:37;;;;;;;74.27;69.40;;;2.10;99.90;;;;;;4343450;33;20200;-61
2022/03/03 01:42:10;;;;;;;71.90;67.03;;;2.10;99.90;;;;;;4342635;32;20283;-58
2022/03/03 01:44:42;;;;;;;73.10;68.07;;;2.10;99.90;;;;;;4343186;32;20229;-57
2022/03/03 01:47:27;;;;;;;77.47;72.53;;;2.00;99.90;;;;;;4346086;33;20190;-57
2022/03/03 01:49:56;;;;;;;75.67;70.57;;;2.00;99.90;;;;;;4340716;33;20230;-61
2022/03/03 01:52:38;;;;;;;78.40;73.10;;;2.00;99.90;;;;;;4344677;32;20252;-61
2022/03/03 01:55:10;;;;;;;78.17;72.87;;;2.00;99.90;;;;;;4342610;32;20232;-61
2022/03/03 01:57:38;;;;;;;79.37;74.30;;;2.10;99.90;;;;;;4347375;32;20258;-60
2022/03/03 02:00:07;;;;;;;77.37;72.43;;;1.90;99.90;;;;;;4344247;33;20208;-62
2022/03/03 02:02:34;;;;;;;80.00;74.77;;;1.90;99.90;;;;;;4353244;32;20158;-60
2022/03/03 02:05:01;;;;;;;81.10;76.00;;;1.80;99.90;;;;;;4353277;32;20154;-60
2022/03/03 02:07:28;;;;;;;84.00;78.80;;;1.80;99.90;;;;;;4359528;32;20175;-61
2022/03/03 02:09:54;;;;;;;86.47;81.17;;;1.80;99.90;;;;;;4360227;32;20613;-60
2022/03/03 02:12:21;;;;;;;82.07;77.10;;;1.70;99.90;;;;;;4361499;33;20210;-61
2022/03/03 02:14:50;;;;;;;78.33;72.87;;;1.70;99.90;;;;;;4360511;32;20188;-60
2022/03/03 02:17:18;;;;;;;86.90;81.47;;;1.70;99.90;;;;;;4361970;32;20771;-60
2022/03/03 02:19:45;;;;;;;76.13;70.90;;;1.70;99.90;;;;;;4359927;32;20168;-61
2022/03/03 02:22:19;;;;;;;88.60;83.00;;;1.80;99.90;;;;;;4361519;32;20213;-60
2022/03/03 02:24:46;;;;;;;77.57;72.27;;;1.70;99.90;;;;;;4361933;32;20176;-60
2022/03/03 02:27:13;;;;;;;85.87;80.40;;;1.70;99.90;;;;;;4362295;32;20243;-60
2022/03/03 02:29:40;;;;;;;80.13;75.03;;;1.60;99.90;;;;;;4361684;33;20252;-60
2022/03/03 02:32:08;;;;;;;84.37;79.03;;;1.70;99.90;;;;;;4362321;32;20172;-60
2022/03/03 02:34:35;;;;;;;76.73;71.60;;;1.60;99.90;;;;;;4361486;33;20228;-60
2022/03/03 02:37:02;;;;;;;89.73;83.80;;;1.60;99.90;;;;;;4350466;32;20620;-60
2022/03/03 02:39:30;;;;;;;81.90;76.57;;;1.50;99.90;;;;;;4353605;33;20182;-60
2022/03/03 02:42:00;;;;;;;80.20;74.63;;;1.50;99.90;;;;;;4361203;32;20149;-60
2022/03/03 02:44:27;;;;;;;78.47;73.37;;;1.50;99.90;;;;;;4348918;33;20165;-61
2022/03/03 02:46:54;;;;;;;80.47;75.10;;;1.50;99.90;;;;;;4361391;33;20615;-61
2022/03/03 02:49:21;;;;;;;84.13;78.40;;;1.50;99.90;;;;;;4356514;32;20153;-60
2022/03/03 02:51:48;;;;;;;85.03;79.53;;;1.50;99.90;;;;;;4362065;32;20161;-61
2022/03/03 02:54:14;;;;;;;78.33;73.27;;;1.50;99.90;;;;;;4361169;33;21168;-60
2022/03/03 02:59:29;;;;;;;81.23;75.73;;;1.40;99.90;;;;;;4354863;32;20483;-60
2022/03/03 03:01:56;;;;;;;74.70;69.90;;;1.40;99.90;;;;;;4358668;32;20583;-60
2022/03/03 03:04:26;;;;;;;80.53;74.77;;;1.40;99.90;;;;;;4360896;33;20218;-60
2022/03/03 03:06:53;;;;;;;85.80;80.33;;;1.30;99.90;;;;;;4341194;33;20185;-60
2022/03/03 03:09:20;;;;;;;81.33;76.17;;;1.30;99.90;;;;;;4354930;32;20473;-60
2022/03/03 03:11:48;;;;;;;82.33;77.27;;;1.30;99.90;;;;;;4357256;33;20176;-60
2022/03/03 03:14:14;;;;;;;84.33;79.13;;;1.20;99.90;;;;;;4360651;33;20214;-60
2022/03/03 03:16:41;;;;;;;82.43;77.03;;;1.20;99.90;;;;;;4361117;32;20180;-60
2022/03/03 03:19:09;;;;;;;80.63;75.37;;;1.20;99.90;;;;;;4351553;33;20156;-61
2022/03/03 03:21:35;;;;;;;78.47;73.43;;;1.10;99.90;;;;;;4361312;32;20241;-60
2022/03/03 03:24:02;;;;;;;88.00;82.37;;;1.10;99.90;;;;;;4360686;32;20565;-60
2022/03/03 03:26:29;;;;;;;82.23;76.97;;;1.00;99.90;;;;;;4359877;33;20160;-60
2022/03/03 03:28:57;;;;;;;87.17;81.40;;;1.00;99.90;;;;;;4361367;32;20228;-60
2022/03/03 03:31:24;;;;;;;86.57;80.83;;;0.90;99.90;;;;;;4360406;33;20485;-61
2022/03/03 03:33:51;;;;;;;88.13;82.70;;;0.90;99.90;;;;;;4359857;33;20210;-59
2022/03/03 03:36:18;;;;;;;91.93;86.13;;;0.90;99.90;;;;;;4359804;33;20173;-61
2022/03/03 03:38:44;;;;;;;86.67;81.20;;;0.90;99.90;;;;;;4357222;33;20156;-62
2022/03/03 03:41:12;;;;;;;92.00;86.30;;;0.90;99.90;;;;;;4359419;33;20173;-62
2022/03/03 03:43:39;;;;;;;84.33;78.43;;;0.80;99.90;;;;;;4360665;33;20173;-60
2022/03/03 03:46:07;;;;;;;89.80;83.87;;;0.80;99.90;;;;;;4360205;33;20171;-60
2022/03/03 03:48:34;;;;;;;85.83;80.33;;;0.70;99.90;;;;;;4359877;33;20204;-59
2022/03/03 03:51:01;;;;;;;84.97;79.27;;;0.70;99.90;;;;;;4360349;33;20217;-59
2022/03/03 03:53:27;;;;;;;83.47;77.97;;;0.70;99.90;;;;;;4359626;32;20235;-59
2022/03/03 03:55:54;;;;;;;86.33;80.87;;;0.70;99.90;;;;;;4359459;33;20175;-59
2022/03/03 03:58:21;;;;;;;85.30;79.77;;;0.80;99.90;;;;;;4358798;32;20458;-59
2022/03/03 04:00:48;;;;;;;86.20;80.67;;;0.70;99.90;;;;;;4356513;33;20188;-61
2022/03/03 04:03:16;;;;;;;84.70;79.03;;;0.70;99.90;;;;;;4359832;33;20177;-59
2022/03/03 04:05:43;;;;;;;85.40;79.43;;;0.60;99.90;;;;;;4359850;33;20210;-59
2022/03/03 04:08:10;;;;;;;89.93;84.43;;;0.60;99.90;;;;;;4359570;32;20475;-59
2022/03/03 04:10:37;;;;;;;87.50;81.30;;;0.50;99.90;;;;;;4356093;33;20224;-59
2022/03/03 04:13:04;;;;;;;82.90;77.27;;;0.50;99.90;;;;;;4358799;33;20217;-59
2022/03/03 04:15:31;;;;;;;85.47;80.07;;;0.40;99.90;;;;;;4359946;33;20195;-59
2022/03/03 04:17:58;;;;;;;87.60;81.93;;;0.50;99.90;;;;;;4359607;33;20564;-60
2022/03/03 04:20:27;;;;;;;88.73;83.13;;;0.40;99.90;;;;;;4358596;33;21353;-58
2022/03/03 04:22:54;;;;;;;84.83;79.43;;;0.40;99.90;;;;;;4359458;33;20200;-61
2022/03/03 04:25:20;;;;;;;83.90;78.47;;;0.40;99.90;;;;;;4355971;33;20576;-61
2022/03/03 04:27:47;;;;;;;87.60;82.10;;;0.30;99.90;;;;;;4360068;33;20196;-61
2022/03/03 04:30:15;;;;;;;89.83;83.97;;;0.30;99.90;;;;;;4358983;33;20623;-60
2022/03/03 04:32:42;;;;;;;88.10;82.60;;;0.30;99.90;;;;;;4358102;33;20191;-60
2022/03/03 04:35:10;;;;;;;87.93;82.23;;;0.20;99.90;;;;;;4361208;33;20172;-60
2022/03/03 04:37:42;;;;;;;87.53;81.73;;;0.20;99.90;;;;;;4359399;33;20660;-60
2022/03/03 04:40:10;;;;;;;89.40;83.70;;;0.20;99.90;;;;;;4361034;33;20191;-60
2022/03/03 04:42:37;;;;;;;101.13;94.87;;;0.20;99.90;;;;;;4359089;33;20161;-59
2022/03/03 04:45:07;;;;;;;91.07;85.37;;;0.20;99.90;;;;;;4359656;33;20216;-60
2022/03/03 04:47:33;;;;;;;93.10;87.03;;;0.20;99.90;;;;;;4358657;33;20156;-60
2022/03/03 04:50:00;;;;;;;95.90;89.73;;;0.10;99.90;;;;;;4359740;33;20149;-60
2022/03/03 04:52:27;;;;;;;92.63;86.70;;;0.10;99.90;;;;;;4359392;33;20217;-60
2022/03/03 04:54:55;;;;;;;92.20;86.40;;;0.10;99.90;;;;;;4354352;33;20187;-59
2022/03/03 04:57:22;;;;;;;90.33;84.70;;;0.10;99.90;;;;;;4359822;33;20200;-59
2022/03/03 04:59:49;;;;;;;90.63;84.53;;;0.10;99.90;;;;;;4359753;33;20215;-60
2022/03/03 05:02:16;;;;;;;96.07;90.20;;;0.00;99.90;;;;;;4358068;33;20163;-59
2022/03/03 05:04:43;;;;;;;97.67;91.77;;;0.00;99.90;;;;;;4358849;32;20187;-59
2022/03/03 05:07:09;;;;;;;100.97;94.50;;;0.00;99.90;;;;;;4362597;32;20260;-59
2022/03/03 05:09:36;;;;;;;96.57;90.57;;;0.00;99.90;;;;;;4362434;32;20187;-60
2022/03/03 05:12:05;;;;;;;95.93;89.93;;;-0.10;99.90;;;;;;4359598;32;20172;-62
2022/03/03 05:14:32;;;;;;;99.27;92.77;;;-0.10;99.90;;;;;;4359988;32;20153;-60
2022/03/03 05:16:59;;;;;;;99.10;92.93;;;-0.10;99.90;;;;;;4360084;33;20172;-61
2022/03/03 05:19:26;;;;;;;93.23;87.27;;;-0.10;99.90;;;;;;4361626;33;20245;-61
2022/03/03 05:21:53;;;;;;;102.67;95.90;;;-0.10;99.90;;;;;;4357906;32;20275;-61
2022/03/03 05:24:20;;;;;;;103.47;96.73;;;-0.10;99.90;;;;;;4361543;32;20198;-60
2022/03/03 05:26:46;;;;;;;97.17;91.37;;;-0.10;99.90;;;;;;4363893;32;20152;-60
2022/03/03 05:29:15;;;;;;;99.87;93.70;;;-0.20;99.90;;;;;;4362633;32;20196;-61
2022/03/03 05:31:42;;;;;;;97.43;91.27;;;-0.20;99.90;;;;;;4362543;32;20496;-59
2022/03/03 05:34:09;;;;;;;96.87;90.87;;;-0.20;99.90;;;;;;4363272;32;20183;-59
2022/03/03 05:36:41;;;;;;;96.47;90.67;;;-0.20;99.90;;;;;;4353586;32;20164;-59
2022/03/03 05:39:09;;;;;;;102.77;96.20;;;-0.20;99.90;;;;;;4361801;32;20187;-59
2022/03/03 05:41:36;;;;;;;100.03;93.87;;;-0.30;99.90;;;;;;4361971;32;20165;-59
2022/03/03 05:44:04;;;;;;;100.53;94.13;;;-0.30;99.90;;;;;;4362739;32;20145;-59
2022/03/03 05:46:32;;;;;;;102.87;95.93;;;-0.30;99.90;;;;;;4359005;32;20172;-59
2022/03/03 05:48:59;;;;;;;98.90;92.63;;;-0.30;99.90;;;;;;4353832;33;20173;-59
2022/03/03 05:51:29;;;;;;;93.63;87.60;;;-0.30;99.90;;;;;;4362274;33;20204;-59
2022/03/03 05:53:56;;;;;;;92.47;86.60;;;-0.30;99.90;;;;;;4361521;32;20240;-59
2022/03/03 05:56:24;;;;;;;101.60;95.20;;;-0.30;99.90;;;;;;4361076;33;20643;-59
2022/03/03 05:58:51;;;;;;;109.27;102.57;;;-0.40;99.90;;;;;;4363035;32;20204;-59
2022/03/03 06:01:19;;;;;;;101.10;94.80;;;-0.40;99.90;;;;;;4362332;32;20157;-58
2022/03/03 06:03:50;;;;;;;94.07;88.17;;;-0.40;99.90;;;;;;4361255;32;20232;-59
2022/03/03 06:06:18;;;;;;;98.13;91.77;;;-0.50;99.90;;;;;;4355213;33;20502;-60
2022/03/03 06:08:56;;;;;;;103.07;96.47;;;-0.50;99.90;;;;;;4361662;32;20236;-59
2022/03/03 06:11:27;;;;;;;102.77;96.37;;;-0.50;99.90;;;;;;4358470;33;20710;-60
2022/03/03 06:13:58;;;;;;;97.03;90.83;;;-0.50;99.90;;;;;;4356320;33;20168;-59
2022/03/03 06:16:27;;;;;;;98.73;92.20;;;-0.50;99.90;;;;;;4344336;33;20195;-59
2022/03/03 06:18:58;;;;;;;102.27;95.57;;;-0.50;99.90;;;;;;4361292;33;20172;-59
2022/03/03 06:21:24;;;;;;;103.10;96.83;;;-0.50;99.90;;;;;;4362566;32;20489;-59
2022/03/03 06:23:51;;;;;;;101.20;94.87;;;-0.40;99.90;;;;;;4361469;33;20203;-61
2022/03/03 06:26:20;;;;;;;105.83;99.20;;;-0.50;99.90;;;;;;4347926;33;20267;-59
2022/03/03 06:28:48;;;;;;;102.87;96.37;;;-0.50;99.90;;;;;;4347531;33;20201;-61
2022/03/03 06:31:15;;;;;;;99.53;93.23;;;-0.50;99.90;;;;;;4356076;32;20191;-60
2022/03/03 06:33:42;;;;;;;99.93;94.00;;;-0.40;99.90;;;;;;4362107;32;20225;-60
2022/03/03 06:36:11;;;;;;;100.20;93.67;;;-0.40;99.90;;;;;;4361661;33;20179;-60
2022/03/03 06:38:38;;;;;;;104.27;97.97;;;-0.40;99.90;;;;;;4361468;33;20216;-61
2022/03/03 06:41:06;;;;;;;103.83;97.43;;;-0.30;99.90;;;;;;4360417;32;20187;-61
2022/03/03 06:43:34;;;;;;;106.23;99.73;;;-0.40;99.90;;;;;;4360959;33;20161;-59
2022/03/03 06:46:01;;;;;;;99.63;93.57;;;-0.40;99.90;;;;;;4359460;33;20637;-60
2022/03/03 06:48:28;;;;;;;101.40;94.50;;;-0.30;99.90;;;;;;4358480;32;20157;-62
2022/03/03 06:50:57;;;;;;;107.97;101.17;;;-0.30;99.90;;;;;;4356459;33;20157;-59
2022/03/03 06:53:30;;;;;;;103.83;97.13;;;-0.30;99.90;;;;;;4360921;33;20208;-62
2022/03/03 06:56:05;;;;;;;101.67;95.30;;;-0.30;99.90;;;;;;4362452;32;20196;-60
2022/03/03 06:58:33;;;;;;;100.33;94.27;;;-0.20;99.90;;;;;;4358370;32;20206;-60
2022/03/03 07:01:07;;;;;;;105.70;99.13;;;-0.10;99.90;;;;;;4360095;33;20204;-59
2022/03/03 07:03:34;;;;;;;109.50;103.10;;;0.00;99.90;;;;;;4360779;32;20506;-60
2022/03/03 07:06:04;;;;;;;108.83;102.23;;;0.10;99.90;;;;;;4360051;32;20160;-60
2022/03/03 07:08:33;;;;;;;103.87;97.27;;;0.20;99.90;;;;;;4359965;32;20169;-60
2022/03/03 07:11:01;;;;;;;104.77;98.47;;;0.20;99.90;;;;;;4358239;32;20160;-60
2022/03/03 07:13:28;;;;;;;105.27;98.63;;;0.30;99.90;;;;;;4355971;32;20585;-60
2022/03/03 07:15:56;;;;;;;103.97;97.43;;;0.30;99.90;;;;;;4359442;32;20161;-61
2022/03/03 07:18:32;;;;;;;107.60;100.67;;;0.40;99.90;;;;;;4359739;33;20150;-60
2022/03/03 07:21:03;;;;;;;108.77;102.33;;;0.50;99.90;;;;;;4359156;33;20152;-59
2022/03/03 07:23:38;;;;;;;118.07;110.60;;;0.60;99.90;;;;;;4358221;33;20182;-61
2022/03/03 07:26:08;;;;;;;106.10;99.37;;;0.70;99.90;;;;;;4359591;33;20156;-60
2022/03/03 07:28:35;;;;;;;107.50;100.80;;;0.80;99.90;;;;;;4361052;32;20601;-59
2022/03/03 07:31:04;;;;;;;106.00;99.53;;;0.90;99.90;;;;;;4357332;32;20577;-60
2022/03/03 07:33:44;;;;;;;103.13;96.77;;;1.00;99.90;;;;;;4352928;32;20231;-62
2022/03/03 07:36:14;;;;;;;94.67;88.77;;;1.00;99.90;;;;;;4359327;32;20161;-59
2022/03/03 07:38:50;;;;;;;95.07;88.83;;;1.10;99.90;;;;;;4357690;32;20157;-59
2022/03/03 07:41:18;;;;;;;91.27;85.57;;;1.30;99.90;;;;;;4359204;32;20176;-59
2022/03/03 07:43:44;;;;;;;91.27;85.43;;;1.40;99.90;;;;;;4357689;33;20173;-58
2022/03/03 07:46:13;;;;;;;92.60;86.40;;;1.50;99.90;;;;;;4357590;32;20268;-59
2022/03/03 07:48:45;;;;;;;90.40;84.53;;;1.60;99.90;;;;;;4357618;33;20176;-59
2022/03/03 07:51:12;;;;;;;91.63;86.00;;;1.70;99.90;;;;;;4356856;32;20156;-58
2022/03/03 07:53:39;;;;;;;83.97;78.40;;;1.80;99.90;;;;;;4357723;32;20187;-59
2022/03/03 07:56:10;;;;;;;84.23;78.93;;;2.00;99.90;;;;;;4352848;32;20628;-58
2022/03/03 07:58:42;;;;;;;84.77;79.30;;;2.10;99.90;;;;;;4360396;33;20155;-59
2022/03/03 08:01:10;;;;;;;85.43;80.03;;;2.30;99.90;;;;;;4360729;32;20496;-58
2022/03/03 08:03:43;;;;;;;72.23;66.97;;;2.50;99.90;;;;;;4360925;32;20173;-58
2022/03/03 08:06:13;;;;;;;75.63;70.63;;;2.60;99.90;;;;;;4360194;32;20507;-59
2022/03/03 08:08:41;;;;;;;67.47;62.77;;;2.80;99.90;;;;;;4358502;33;20239;-59
2022/03/03 08:11:11;;;;;;;71.37;66.33;;;2.90;99.90;;;;;;4359196;33;20238;-59
2022/03/03 08:13:42;;;;;;;65.13;60.43;;;3.10;99.90;;;;;;4358962;33;20201;-59
2022/03/03 08:16:27;;;;;;;66.40;61.73;;;3.30;99.90;;;;;;4357728;32;20216;-59
2022/03/03 08:18:57;;;;;;;65.00;60.43;;;3.40;99.90;;;;;;4356742;32;20176;-57
2022/03/03 08:21:24;;;;;;;67.53;62.97;;;3.60;99.90;;;;;;4358470;32;20172;-58
2022/03/03 08:23:51;;;;;;;64.23;59.93;;;3.80;99.90;;;;;;4358298;32;20518;-58
2022/03/03 08:26:20;;;;;;;62.47;58.33;;;4.00;99.90;;;;;;4358819;33;20262;-57
2022/03/03 08:28:46;;;;;;;75.50;70.73;;;4.10;99.90;;;;;;4356773;33;20179;-58
2022/03/03 08:31:18;;;;;;;69.30;64.60;;;4.20;99.90;;;;;;4359425;33;20210;-58
2022/03/03 08:33:53;;;;;;;67.20;62.83;;;4.30;99.90;;;;;;4358913;32;20177;-58
2022/03/03 08:36:26;;;;;;;63.00;58.87;;;4.50;99.90;;;;;;4361397;33;20535;-58
2022/03/03 08:38:57;;;;;;;63.47;59.13;;;4.60;99.90;;;;;;4360628;32;20627;-59
2022/03/03 08:41:25;;;;;;;64.40;60.30;;;4.70;99.40;;;;;;4363648;32;20208;-57
2022/03/03 08:43:54;;;;;;;60.33;56.20;;;4.80;99.20;;;;;;4363094;33;20172;-59
2022/03/03 08:46:24;;;;;;;61.03;57.13;;;4.90;99.50;;;;;;4363331;33;20168;-60
2022/03/03 08:48:52;;;;;;;62.73;58.17;;;5.10;99.20;;;;;;4363725;32;20603;-58
2022/03/03 08:51:19;;;;;;;60.03;55.97;;;5.20;98.00;;;;;;4364033;32;20540;-58
2022/03/03 08:53:46;;;;;;;61.57;57.37;;;5.30;98.40;;;;;;4364063;32;20171;-59
2022/03/03 08:56:13;;;;;;;57.57;53.87;;;5.50;98.10;;;;;;4364505;32;20153;-58
2022/03/03 08:58:42;;;;;;;57.90;54.03;;;5.50;98.20;;;;;;4363484;32;20449;-58
2022/03/03 09:01:09;;;;;;;58.30;54.17;;;5.70;97.90;;;;;;4363173;32;20188;-58
2022/03/03 09:03:36;;;;;;;52.80;48.87;;;5.80;97.10;;;;;;4363124;33;20208;-58
2022/03/03 09:06:03;;;;;;;57.77;53.77;;;5.90;96.70;;;;;;4363090;32;20201;-59
2022/03/03 09:08:30;;;;;;;57.77;53.57;;;6.00;97.10;;;;;;4363652;32;20164;-59
2022/03/03 09:10:57;;;;;;;56.90;53.03;;;6.20;96.90;;;;;;4363819;32;20161;-59
2022/03/03 09:13:24;;;;;;;60.57;56.10;;;6.30;96.40;;;;;;4363334;32;20201;-59
2022/03/03 09:15:52;;;;;;;57.40;53.37;;;6.50;96.00;;;;;;4363453;32;20172;-59
2022/03/03 09:18:19;;;;;;;56.53;52.77;;;6.40;95.30;;;;;;4363001;33;20181;-59
2022/03/03 09:20:46;;;;;;;56.53;52.57;;;6.40;95.60;;;;;;4363002;33;20497;-59
2022/03/03 09:23:13;;;;;;;57.20;53.60;;;6.50;95.50;;;;;;4362518;33;20161;-58
2022/03/03 09:25:41;;;;;;;62.10;57.90;;;6.60;95.60;;;;;;4363355;32;20145;-57
2022/03/03 09:28:08;;;;;;;58.23;54.13;;;6.70;94.70;;;;;;4363049;33;20149;-58
2022/03/03 09:30:35;;;;;;;54.07;50.27;;;6.80;94.90;;;;;;4362769;33;20164;-58
2022/03/03 09:33:03;;;;;;;49.90;46.47;;;6.90;94.90;;;;;;4362624;33;20196;-59
2022/03/03 09:35:30;;;;;;;51.50;47.70;;;7.00;94.50;;;;;;4362560;33;20208;-59
2022/03/03 09:37:57;;;;;;;50.70;47.27;;;7.10;93.80;;;;;;4362591;33;20172;-58
2022/03/03 09:40:24;;;;;;;53.07;49.33;;;7.20;93.70;;;;;;4363081;32;20449;-60
2022/03/03 09:43:05;;;;;;;55.30;51.30;;;7.20;94.00;;;;;;4362549;33;20179;-59
2022/03/03 09:45:33;;;;;;;55.27;51.43;;;7.30;94.00;;;;;;4362565;33;20203;-60
2022/03/03 09:48:02;;;;;;;53.33;48.97;;;7.40;93.30;;;;;;4362858;32;20185;-60
2022/03/03 09:50:31;;;;;;;50.70;47.17;;;7.50;94.00;;;;;;4361899;32;20165;-56
2022/03/03 09:52:59;;;;;;;51.20;47.60;;;7.50;92.80;;;;;;4363219;32;20211;-59
2022/03/03 09:55:26;;;;;;;49.77;45.70;;;7.70;92.30;;;;;;4362355;33;20190;-58
2022/03/03 09:57:53;;;;;;;49.10;45.40;;;7.70;92.00;;;;;;4362315;33;20165;-60
2022/03/03 10:00:20;;;;;;;44.63;41.53;;;7.80;92.00;;;;;;4362489;33;20205;-59
2022/03/03 10:03:03;;;;;;;52.83;48.97;;;7.90;92.00;;;;;;4362313;33;20212;-58
2022/03/03 10:05:36;;;;;;;45.13;41.93;;;8.00;91.50;;;;;;4362420;32;20584;-59
2022/03/03 10:08:06;;;;;;;45.27;41.90;;;8.10;92.00;;;;;;4361889;33;20169;-60
2022/03/03 10:10:34;;;;;;;47.33;44.13;;;8.20;90.50;;;;;;4363355;32;20488;-59
2022/03/03 10:13:01;;;;;;;46.30;43.23;;;8.30;90.60;;;;;;4362170;32;20153;-58
2022/03/03 10:15:29;;;;;;;44.07;40.87;;;8.40;90.00;;;;;;4362050;32;20592;-59
2022/03/03 10:17:57;;;;;;;43.77;40.43;;;8.50;88.30;;;;;;4362093;33;20218;-59
2022/03/03 10:20:24;;;;;;;42.83;39.80;;;8.50;88.20;;;;;;4359903;33;20173;-59
2022/03/03 10:22:57;;;;;;;43.40;40.10;;;8.50;87.90;;;;;;4362063;33;20211;-59
2022/03/03 10:25:30;;;;;;;45.77;42.53;;;8.70;87.20;;;;;;4361976;32;20173;-60
2022/03/03 10:28:05;;;;;;;40.47;37.67;;;8.70;85.20;;;;;;4356070;33;20629;-58
2022/03/03 10:30:58;;;;;;;36.67;34.00;;;8.90;86.70;;;;;;4361940;32;20226;-59
2022/03/03 10:33:30;;;;;;;39.43;36.97;;;9.00;82.40;;;;;;4363213;32;20156;-59
2022/03/03 10:36:19;;;;;;;37.77;34.97;;;9.00;85.20;;;;;;4356307;33;20616;-59
2022/03/03 10:38:52;;;;;;;39.53;36.83;;;9.20;81.60;;;;;;4353242;33;20240;-59
2022/03/03 10:41:31;;;;;;;40.70;37.93;;;9.10;84.50;;;;;;4347322;33;20260;-58
2022/03/03 10:44:02;;;;;;;39.60;37.00;;;9.20;84.80;;;;;;4343256;33;20699;-58
2022/03/03 10:46:30;;;;;;;41.13;37.20;;;9.40;84.40;;;;;;4342264;33;20209;-59
2022/03/03 10:48:57;;;;;;;40.07;37.43;;;9.50;83.50;;;;;;4344580;33;20341;-59
2022/03/03 10:51:27;;;;;;;40.50;37.57;;;9.50;83.80;;;;;;4355047;33;20536;-59
2022/03/03 10:54:04;;;;;;;43.23;40.20;;;9.60;83.30;;;;;;4348286;33;20142;-59
2022/03/03 10:56:42;;;;;;;46.03;43.20;;;9.60;83.10;;;;;;4349770;33;20171;-60
2022/03/03 10:59:10;;;;;;;44.17;41.07;;;9.70;83.80;;;;;;4350172;32;20190;-59
2022/03/03 11:01:42;;;;;;;44.00;41.07;;;9.70;83.00;;;;;;4344726;32;20160;-60
2022/03/03 11:04:14;;;;;;;43.47;40.57;;;9.70;83.80;;;;;;4352435;32;20195;-61
2022/03/03 11:06:41;;;;;;;41.50;38.60;;;9.80;84.10;;;;;;4346728;33;20209;-59
2022/03/03 11:09:10;;;;;;;45.93;43.03;;;9.80;82.90;;;;;;4347666;33;20153;-59
2022/03/03 11:11:38;;;;;;;37.47;34.93;;;9.90;82.60;;;;;;4351113;33;20162;-59
2022/03/03 11:14:06;;;;;;;42.97;40.17;;;9.90;80.00;;;;;;4355020;33;20197;-59
2022/03/03 11:16:33;;;;;;;38.83;36.30;;;10.00;80.30;;;;;;4361376;33;20179;-59
2022/03/03 11:19:02;;;;;;;42.50;39.20;;;10.00;79.00;;;;;;4364011;32;20555;-60
2022/03/03 11:21:29;;;;;;;38.03;35.33;;;10.10;78.20;;;;;;4376966;32;20183;-60
2022/03/03 11:23:57;;;;;;;37.57;35.03;;;10.10;78.40;;;;;;4376581;32;20212;-60
2022/03/03 11:26:27;;;;;;;35.67;33.37;;;10.20;75.90;;;;;;4376638;32;20163;-60
2022/03/03 11:29:03;;;;;;;36.93;34.27;;;10.20;76.00;;;;;;4376326;32;20167;-62
2022/03/03 11:31:32;;;;;;;35.87;33.50;;;10.20;75.20;;;;;;4376783;32;20663;-61
2022/03/03 11:34:19;;;;;;;35.00;32.57;;;10.30;73.90;;;;;;4376886;32;20145;-58
2022/03/03 11:36:46;;;;;;;34.93;32.30;;;10.30;74.00;;;;;;4375908;32;20232;-59
2022/03/03 11:39:37;;;;;;;33.13;30.83;;;10.30;72.40;;;;;;4375957;32;20156;-59
2022/03/03 11:42:37;;;;;;;36.80;34.50;;;10.30;71.90;;;;;;4376078;32;20166;-58
2022/03/03 11:45:30;;;;;;;34.53;32.33;;;10.20;73.10;;;;;;4344544;33;20639;-60
2022/03/03 11:48:14;;;;;;;34.87;32.57;;;10.20;72.20;;;;;;4344154;33;20535;-61
2022/03/03 11:50:42;;;;;;;33.57;31.17;;;10.20;71.80;;;;;;4344641;33;20157;-61
2022/03/03 11:53:24;;;;;;;36.40;33.87;;;10.20;71.80;;;;;;4343769;33;20690;-59
2022/03/03 11:56:01;;;;;;;31.70;29.43;;;10.30;72.40;;;;;;4344903;33;20236;-59
2022/03/03 11:58:32;;;;;;;36.47;33.87;;;10.30;70.70;;;;;;4344541;33;20150;-59
2022/03/03 12:01:08;;;;;;;34.13;31.73;;;10.40;70.50;;;;;;4343929;33;20227;-59
2022/03/03 12:04:03;;;;;;;31.73;29.50;;;10.40;70.70;;;;;;4344759;33;20184;-60
2022/03/03 12:06:38;;;;;;;33.73;31.00;;;10.40;69.40;;;;;;4343738;33;20191;-59
2022/03/03 12:09:24;;;;;;;36.80;34.30;;;10.60;69.90;;;;;;4340441;33;20216;-59
2022/03/03 12:12:06;;;;;;;33.20;31.13;;;10.50;69.10;;;;;;4340387;33;20156;-59
2022/03/03 12:14:37;;;;;;;35.03;32.80;;;10.50;69.00;;;;;;4338972;33;20256;-59
2022/03/03 12:17:39;;;;;;;33.87;31.67;;;10.50;70.60;;;;;;4334441;33;20190;-60
2022/03/03 12:20:34;;;;;;;31.53;29.33;;;10.50;69.20;;;;;;4346983;32;20147;-60
2022/03/03 12:23:05;;;;;;;31.47;29.37;;;10.60;68.60;;;;;;4374027;32;20209;-61
2022/03/03 12:25:58;;;;;;;30.77;28.57;;;10.60;68.70;;;;;;4374020;32;20178;-61
2022/03/03 12:28:35;;;;;;;32.77;30.47;;;10.70;67.40;;;;;;4373119;32;20153;-60
2022/03/03 12:31:19;;;;;;;32.47;30.40;;;10.70;67.30;;;;;;4373999;32;20172;-61
2022/03/03 12:34:01;;;;;;;33.27;31.07;;;10.70;67.70;;;;;;4370077;32;20210;-60
2022/03/03 12:36:28;;;;;;;32.77;30.47;;;10.80;68.20;;;;;;4366285;32;20210;-60
2022/03/03 12:38:55;;;;;;;36.33;34.03;;;10.80;66.80;;;;;;4375309;32;20202;-60
2022/03/03 12:41:26;;;;;;;31.90;29.77;;;10.80;67.60;;;;;;4373959;32;20917;-60
2022/03/03 12:44:02;;;;;;;36.73;34.20;;;10.80;67.90;;;;;;4374578;32;20162;-61
2022/03/03 12:46:32;;;;;;;35.73;33.20;;;10.70;66.50;;;;;;4363373;32;20522;-60
2022/03/03 12:49:02;;;;;;;34.43;32.03;;;10.70;68.20;;;;;;4371008;32;20215;-60